createdAt,value
2017-10-25T00:00:32.967Z,101398.78
2017-10-25T00:03:00.505Z,101396.56
2017-10-25T00:05:28.039Z,101396.27
2017-10-25T00:07:55.528Z,101398.19
2017-10-25T00:10:23.143Z,101397.48
2017-10-25T00:12:50.701Z,101389.20
2017-10-25T00:15:18.261Z,101380.70
2017-10-25T00:17:45.925Z,101383.95
2017-10-25T00:20:13.420Z,101374.56
2017-10-25T00:22:40.908Z,101377.69
2017-10-25T00:25:09.314Z,101378.20
2017-10-25T00:27:36.806Z,101373.20
2017-10-25T00:30:04.302Z,101367.92
2017-10-25T00:32:32.396Z,101373.69
2017-10-25T00:34:59.890Z,101378.05
2017-10-25T00:37:27.390Z,101372.69
2017-10-25T00:39:55.293Z,101367.98
2017-10-25T00:42:22.849Z,101363.84
2017-10-25T00:44:50.430Z,101364.80
2017-10-25T00:47:20.982Z,101370.02
2017-10-25T00:49:48.502Z,101370.02
2017-10-25T00:52:16.263Z,101363.51
2017-10-25T00:54:43.755Z,101365.60
2017-10-25T00:57:11.248Z,101358.80
2017-10-25T00:59:38.837Z,101362.41
2017-10-25T01:02:06.328Z,101359.03
2017-10-25T01:04:33.829Z,101348.47
2017-10-25T01:07:02.224Z,101347.30
2017-10-25T01:09:29.718Z,101349.15
2017-10-25T01:11:57.251Z,101346.11
2017-10-25T01:14:24.771Z,101336.08
2017-10-25T01:16:52.263Z,101337.12
2017-10-25T01:19:19.824Z,101337.85
2017-10-25T01:21:48.105Z,101338.02
2017-10-25T01:24:15.591Z,101327.45
2017-10-25T01:26:43.075Z,101327.58
2017-10-25T01:29:11.668Z,101330.70
2017-10-25T01:31:40.078Z,101323.37
2017-10-25T01:34:07.571Z,101316.76
2017-10-25T01:36:35.862Z,101320.42
2017-10-25T01:39:03.355Z,101330.58
2017-10-25T01:41:30.927Z,101316.44
2017-10-25T01:43:59.299Z,101320.11
2017-10-25T01:46:26.863Z,101312.42
2017-10-25T01:48:54.445Z,101305.34
2017-10-25T01:51:23.332Z,101316.09
2017-10-25T01:53:50.835Z,101311.80
2017-10-25T01:56:18.351Z,101314.59
2017-10-25T01:58:45.851Z,101312.08
2017-10-25T02:01:14.972Z,101314.71
2017-10-25T02:03:42.459Z,101312.69
2017-10-25T02:06:09.957Z,101305.76
2017-10-25T02:08:38.376Z,101307.31
2017-10-25T02:11:05.874Z,101305.19
2017-10-25T02:13:33.373Z,101297.98
2017-10-25T02:16:01.059Z,101307.50
2017-10-25T02:18:28.551Z,101303.08
2017-10-25T02:20:56.057Z,101303.90
2017-10-25T02:23:23.736Z,101309.41
2017-10-25T02:25:51.299Z,101303.55
2017-10-25T02:28:18.801Z,101300.30
2017-10-25T02:30:46.322Z,101298.30
2017-10-25T02:33:14.280Z,101296.59
2017-10-25T02:35:41.775Z,101299.61
2017-10-25T02:38:09.270Z,101298.24
2017-10-25T02:40:36.784Z,101299.48
2017-10-25T02:43:04.304Z,101297.30
2017-10-25T02:45:31.804Z,101294.83
2017-10-25T02:48:00.844Z,101299.41
2017-10-25T02:50:28.335Z,101301.63
2017-10-25T02:52:55.823Z,101295.73
2017-10-25T02:55:23.353Z,101290.73
2017-10-25T02:57:50.897Z,101292.86
2017-10-25T03:00:18.399Z,101297.23
2017-10-25T03:02:46.740Z,101297.55
2017-10-25T03:05:14.227Z,101292.20
2017-10-25T03:07:41.723Z,101291.15
2017-10-25T03:10:10.780Z,101297.70
2017-10-25T03:12:38.275Z,101299.61
2017-10-25T03:15:05.855Z,101297.83
2017-10-25T03:17:33.411Z,101293.11
2017-10-25T03:20:00.980Z,101286.81
2017-10-25T03:22:28.476Z,101287.67
2017-10-25T03:24:55.996Z,101290.39
2017-10-25T03:27:23.508Z,101292.16
2017-10-25T03:29:51.827Z,101285.36
2017-10-25T03:32:19.333Z,101273.11
2017-10-25T03:34:46.824Z,101285.05
2017-10-25T03:37:14.345Z,101279.79
2017-10-25T03:39:41.864Z,101278.55
2017-10-25T03:42:09.360Z,101285.11
2017-10-25T03:44:36.876Z,101282.64
2017-10-25T03:47:05.252Z,101282.92
2017-10-25T03:49:33.486Z,101284.47
2017-10-25T03:52:00.980Z,101283.53
2017-10-25T03:54:29.373Z,101275.89
2017-10-25T03:56:56.923Z,101281.50
2017-10-25T03:59:24.420Z,101275.55
2017-10-25T04:01:51.937Z,101279.09
2017-10-25T04:04:19.431Z,101272.70
2017-10-25T04:06:46.948Z,101269.03
2017-10-25T04:09:15.540Z,101274.89
2017-10-25T04:11:43.101Z,101272.16
2017-10-25T04:14:10.672Z,101271.12
2017-10-25T04:16:38.195Z,101278.20
2017-10-25T04:19:05.791Z,101277.26
2017-10-25T04:21:33.336Z,101284.38
2017-10-25T04:24:00.870Z,101280.17
2017-10-25T04:26:28.375Z,101278.69
2017-10-25T04:28:55.873Z,101276.44
2017-10-25T04:31:24.290Z,101271.19
2017-10-25T04:33:51.851Z,101271.19
2017-10-25T04:36:19.415Z,101268.77
2017-10-25T04:38:46.932Z,101270.01
2017-10-25T04:41:14.423Z,101266.63
2017-10-25T04:43:41.991Z,101274.37
2017-10-25T04:46:10.204Z,101273.33
2017-10-25T04:48:37.694Z,101272.92
2017-10-25T04:51:06.002Z,101269.78
2017-10-25T04:53:33.559Z,101273.08
2017-10-25T04:56:01.058Z,101270.36
2017-10-25T04:58:30.054Z,101263.55
2017-10-25T05:00:57.556Z,101265.77
2017-10-25T05:03:25.127Z,101263.20
2017-10-25T05:05:52.704Z,101262.56
2017-10-25T05:08:20.248Z,101263.80
2017-10-25T05:10:47.740Z,101269.52
2017-10-25T05:13:15.729Z,101268.58
2017-10-25T05:15:43.220Z,101262.18
2017-10-25T05:18:10.716Z,101263.00
2017-10-25T05:20:38.329Z,101263.95
2017-10-25T05:23:05.925Z,101262.18
2017-10-25T05:25:33.415Z,101264.36
2017-10-25T05:28:01.854Z,101262.91
2017-10-25T05:30:29.424Z,101261.83
2017-10-25T05:32:56.968Z,101265.69
2017-10-25T05:35:24.633Z,101267.47
2017-10-25T05:37:52.127Z,101268.60
2017-10-25T05:40:19.628Z,101270.38
2017-10-25T05:42:47.155Z,101274.05
2017-10-25T05:45:15.255Z,101271.33
2017-10-25T05:47:42.829Z,101266.80
2017-10-25T05:50:10.334Z,101276.93
2017-10-25T05:52:38.048Z,101268.34
2017-10-25T05:55:05.548Z,101273.86
2017-10-25T05:57:33.045Z,101278.67
2017-10-25T06:00:01.445Z,101276.64
2017-10-25T06:02:28.940Z,101272.97
2017-10-25T06:04:56.435Z,101282.94
2017-10-25T06:07:24.847Z,101279.02
2017-10-25T06:09:52.341Z,101280.56
2017-10-25T06:12:19.833Z,101280.34
2017-10-25T06:14:47.367Z,101288.20
2017-10-25T06:17:14.862Z,101291.39
2017-10-25T06:19:42.363Z,101277.95
2017-10-25T06:22:10.707Z,101284.55
2017-10-25T06:24:38.199Z,101278.48
2017-10-25T06:27:05.688Z,101285.42
2017-10-25T06:29:33.210Z,101282.48
2017-10-25T06:32:00.746Z,101289.45
2017-10-25T06:37:02.215Z,101286.87
2017-10-25T06:39:29.755Z,101291.61
2017-10-25T06:41:57.250Z,101293.67
2017-10-25T06:44:24.761Z,101294.67
2017-10-25T06:46:52.444Z,101293.66
2017-10-25T06:49:19.943Z,101295.39
2017-10-25T06:51:47.453Z,101290.95
2017-10-25T06:54:14.980Z,101293.13
2017-10-25T06:56:42.588Z,101288.14
2017-10-25T06:59:10.079Z,101290.58
2017-10-25T07:01:37.602Z,101292.31
2017-10-25T07:04:05.268Z,101291.69
2017-10-25T07:06:32.827Z,101283.52
2017-10-25T07:09:00.381Z,101288.44
2017-10-25T07:11:27.946Z,101283.86
2017-10-25T07:13:55.470Z,101286.83
2017-10-25T07:16:22.960Z,101286.11
2017-10-25T07:18:51.438Z,101281.66
2017-10-25T07:21:18.935Z,101283.12
2017-10-25T07:23:46.454Z,101287.68
2017-10-25T07:26:14.016Z,101291.26
2017-10-25T07:28:41.515Z,101294.40
2017-10-25T07:31:09.000Z,101282.00
2017-10-25T07:33:37.308Z,101282.17
2017-10-25T07:36:04.801Z,101280.91
2017-10-25T07:38:32.296Z,101284.16
2017-10-25T07:40:59.829Z,101281.12
2017-10-25T07:43:28.155Z,101274.88
2017-10-25T07:45:55.716Z,101281.84
2017-10-25T07:48:23.211Z,101277.66
2017-10-25T07:50:50.743Z,101267.52
2017-10-25T07:53:18.240Z,101272.06
2017-10-25T07:55:45.756Z,101273.56
2017-10-25T07:58:13.307Z,101273.84
2017-10-25T08:00:40.809Z,101274.43
2017-10-25T08:03:08.295Z,101274.11
2017-10-25T08:05:35.851Z,101289.17
2017-10-25T08:08:03.447Z,101281.30
2017-10-25T08:10:30.961Z,101281.13
2017-10-25T08:12:58.664Z,101283.56
2017-10-25T08:15:26.216Z,101277.93
2017-10-25T08:17:53.714Z,101275.10
2017-10-25T08:20:21.251Z,101284.34
2017-10-25T08:22:48.796Z,101277.28
2017-10-25T08:25:16.282Z,101275.23
2017-10-25T08:27:43.815Z,101272.31
2017-10-25T08:30:11.375Z,101275.53
2017-10-25T08:32:38.880Z,101273.89
2017-10-25T08:35:06.488Z,101277.89
2017-10-25T08:37:34.043Z,101272.73
2017-10-25T08:40:01.550Z,101274.58
2017-10-25T08:42:29.497Z,101265.28
2017-10-25T08:44:56.981Z,101260.95
2017-10-25T08:47:24.515Z,101258.38
2017-10-25T08:49:52.069Z,101266.07
2017-10-25T08:52:19.615Z,101267.48
2017-10-25T08:54:47.103Z,101273.73
2017-10-25T08:57:14.668Z,101269.74
2017-10-25T08:59:42.291Z,101265.55
2017-10-25T09:02:09.952Z,101272.41
2017-10-25T09:04:37.451Z,101274.27
2017-10-25T09:07:04.948Z,101271.70
2017-10-25T09:09:32.476Z,101279.12
2017-10-25T09:11:59.970Z,101282.98
2017-10-25T09:14:27.463Z,101289.53
2017-10-25T09:16:54.989Z,101279.01
2017-10-25T09:19:22.493Z,101279.34
2017-10-25T09:21:49.987Z,101277.09
2017-10-25T09:24:17.511Z,101287.28
2017-10-25T09:26:45.057Z,101286.91
2017-10-25T09:29:12.559Z,101278.02
2017-10-25T09:31:40.153Z,101267.67
2017-10-25T09:34:07.691Z,101272.04
2017-10-25T09:36:35.185Z,101268.78
2017-10-25T09:39:02.672Z,101262.77
2017-10-25T09:41:30.385Z,101268.50
2017-10-25T09:43:57.960Z,101261.38
2017-10-25T09:46:25.448Z,101266.42
2017-10-25T09:48:52.984Z,101271.11
2017-10-25T09:51:20.518Z,101266.22
2017-10-25T09:53:48.075Z,101268.65
2017-10-25T09:56:15.588Z,101266.76
2017-10-25T09:58:43.119Z,101264.11
2017-10-25T10:01:10.870Z,101261.67
2017-10-25T10:03:38.359Z,101258.59
2017-10-25T10:06:05.887Z,101252.25
2017-10-25T10:08:33.423Z,101256.91
2017-10-25T10:11:00.944Z,101244.59
2017-10-25T10:13:28.436Z,101244.59
2017-10-25T10:15:55.924Z,101245.69
2017-10-25T10:18:23.460Z,101245.11
2017-10-25T10:20:51.023Z,101244.16
2017-10-25T10:23:18.507Z,101238.79
2017-10-25T10:25:46.024Z,101238.73
2017-10-25T10:28:13.512Z,101233.50
2017-10-25T10:30:41.084Z,101225.02
2017-10-25T10:33:08.572Z,101223.75
2017-10-25T10:35:36.097Z,101228.30
2017-10-25T10:38:03.653Z,101220.92
2017-10-25T10:40:31.147Z,101214.21
2017-10-25T10:42:58.636Z,101221.72
2017-10-25T10:45:26.169Z,101214.66
2017-10-25T10:47:53.659Z,101216.63
2017-10-25T10:50:21.157Z,101220.02
2017-10-25T10:52:48.689Z,101232.41
2017-10-25T10:55:16.243Z,101226.13
2017-10-25T10:57:43.729Z,101225.62
2017-10-25T11:00:11.273Z,101216.85
2017-10-25T11:02:38.778Z,101213.80
2017-10-25T11:05:06.268Z,101210.92
2017-10-25T11:07:33.776Z,101221.59
2017-10-25T11:10:01.260Z,101222.06
2017-10-25T11:12:28.872Z,101217.94
2017-10-25T11:14:56.411Z,101217.14
2017-10-25T11:17:23.901Z,101227.22
2017-10-25T11:19:51.522Z,101219.66
2017-10-25T11:22:19.008Z,101221.81
2017-10-25T11:24:46.492Z,101223.45
2017-10-25T11:27:14.013Z,101220.23
2017-10-25T11:29:41.506Z,101224.86
2017-10-25T11:32:08.995Z,101225.46
2017-10-25T11:34:36.514Z,101229.09
2017-10-25T11:37:03.997Z,101226.13
2017-10-25T11:39:31.481Z,101219.36
2017-10-25T11:41:59.016Z,101213.11
2017-10-25T11:44:26.496Z,101208.67
2017-10-25T11:46:54.068Z,101201.29
2017-10-25T11:49:21.586Z,101201.81
2017-10-25T11:51:49.071Z,101203.19
2017-10-25T11:54:16.643Z,101202.50
2017-10-25T11:56:44.208Z,101196.06
2017-10-25T11:59:11.698Z,101203.77
2017-10-25T12:01:39.239Z,101189.25
2017-10-25T12:04:06.720Z,101188.17
2017-10-25T12:06:34.205Z,101188.84
2017-10-25T12:09:01.707Z,101188.41
2017-10-25T12:11:29.274Z,101186.45
2017-10-25T12:13:56.758Z,101187.84
2017-10-25T12:16:24.261Z,101192.16
2017-10-25T12:18:51.785Z,101188.97
2017-10-25T12:21:19.282Z,101188.70
2017-10-25T12:23:46.774Z,101186.77
2017-10-25T12:26:14.286Z,101184.67
2017-10-25T12:28:41.855Z,101180.00
2017-10-25T12:31:09.335Z,101179.80
2017-10-25T12:33:36.819Z,101176.81
2017-10-25T12:36:04.369Z,101177.45
2017-10-25T12:38:31.853Z,101177.61
2017-10-25T12:40:59.339Z,101180.33
2017-10-25T12:43:26.900Z,101183.15
2017-10-25T12:45:55.279Z,101171.17
2017-10-25T12:48:22.862Z,101164.25
2017-10-25T12:50:50.383Z,101165.63
2017-10-25T12:53:17.967Z,101160.23
2017-10-25T12:55:45.503Z,101159.68
2017-10-25T12:58:13.079Z,101157.47
2017-10-25T13:00:40.563Z,101170.20
2017-10-25T13:03:08.088Z,101160.17
2017-10-25T13:05:35.610Z,101164.44
2017-10-25T13:08:03.122Z,101162.09
2017-10-25T13:10:47.731Z,101172.20
2017-10-25T13:13:35.990Z,101168.92
2017-10-25T13:16:05.008Z,101160.95
2017-10-25T13:18:33.220Z,101165.31
2017-10-25T13:21:00.708Z,101155.30
2017-10-25T13:23:28.328Z,101165.32
2017-10-25T13:25:55.819Z,101162.20
2017-10-25T13:28:23.312Z,101167.17
2017-10-25T13:30:50.987Z,101167.18
2017-10-25T13:33:18.471Z,101178.45
2017-10-25T13:35:46.006Z,101177.13
2017-10-25T13:38:13.536Z,101184.25
2017-10-25T13:40:41.120Z,101186.58
2017-10-25T13:43:08.617Z,101191.08
2017-10-25T13:45:36.144Z,101194.05
2017-10-25T13:48:03.633Z,101190.84
2017-10-25T13:50:31.126Z,101187.81
2017-10-25T13:52:58.631Z,101194.11
2017-10-25T13:55:26.173Z,101189.59
2017-10-25T13:57:53.840Z,101195.89
2017-10-25T14:00:21.332Z,101194.94
2017-10-25T14:02:48.822Z,101204.03
2017-10-25T14:05:16.356Z,101204.71
2017-10-25T14:07:43.839Z,101207.03
2017-10-25T14:10:11.343Z,101210.03
2017-10-25T14:12:38.884Z,101204.52
2017-10-25T14:15:06.371Z,101196.47
2017-10-25T14:17:33.891Z,101191.49
2017-10-25T14:20:01.401Z,101190.13
2017-10-25T14:22:28.892Z,101200.68
2017-10-25T14:24:56.429Z,101196.14
2017-10-25T14:27:35.813Z,101204.86
2017-10-25T14:30:03.471Z,101205.26
2017-10-25T14:32:30.956Z,101198.12
2017-10-25T14:34:58.431Z,101209.73
2017-10-25T14:37:25.956Z,101218.19
2017-10-25T14:39:53.441Z,101219.66
2017-10-25T14:42:20.924Z,101224.13
2017-10-25T14:44:48.434Z,101221.38
2017-10-25T14:47:15.927Z,101230.13
2017-10-25T14:49:43.422Z,101232.55
2017-10-25T14:52:10.961Z,101237.34
2017-10-25T14:54:38.449Z,101233.73
2017-10-25T14:57:05.936Z,101250.16
2017-10-25T14:59:33.456Z,101255.94
2017-10-25T15:02:01.023Z,101244.84
2017-10-25T15:04:28.515Z,101253.04
2017-10-25T15:06:56.060Z,101252.73
2017-10-25T15:09:23.608Z,101255.19
2017-10-25T15:11:51.160Z,101255.02
2017-10-25T15:14:18.717Z,101257.33
2017-10-25T15:16:46.213Z,101257.17
2017-10-25T15:21:47.532Z,101254.30
2017-10-25T15:24:15.040Z,101257.70
2017-10-25T15:26:42.650Z,101261.38
2017-10-25T15:29:10.221Z,101270.96
2017-10-25T15:31:37.771Z,101268.47
2017-10-25T15:34:05.262Z,101277.63
2017-10-25T15:36:32.813Z,101270.75
2017-10-25T15:39:00.353Z,101281.88
2017-10-25T15:41:27.844Z,101280.89
2017-10-25T15:43:55.332Z,101278.15
2017-10-25T15:46:23.036Z,101275.08
2017-10-25T15:48:50.610Z,101278.31
2017-10-25T15:51:18.092Z,101288.59
2017-10-25T15:53:45.619Z,101286.91
2017-10-25T15:56:13.170Z,101298.99
2017-10-25T15:58:40.653Z,101304.22
2017-10-25T16:01:08.389Z,101300.01
2017-10-25T16:03:35.880Z,101302.14
2017-10-25T16:06:03.365Z,101304.47
2017-10-25T16:08:30.867Z,101318.31
2017-10-25T16:10:58.408Z,101316.51
2017-10-25T16:13:25.899Z,101316.17
2017-10-25T16:15:53.419Z,101328.47
2017-10-25T16:18:21.001Z,101332.78
2017-10-25T16:20:48.496Z,101339.88
2017-10-25T16:23:16.014Z,101338.58
2017-10-25T16:25:43.502Z,101342.06
2017-10-25T16:28:11.024Z,101341.67
2017-10-25T16:30:38.512Z,101346.70
2017-10-25T16:33:05.993Z,101343.59
2017-10-25T16:35:33.601Z,101341.98
2017-10-25T16:38:01.156Z,101338.08
2017-10-25T16:40:28.644Z,101354.03
2017-10-25T16:42:56.168Z,101350.45
2017-10-25T16:45:23.653Z,101348.77
2017-10-25T16:47:51.135Z,101350.27
2017-10-25T16:50:18.673Z,101359.12
2017-10-25T16:52:46.159Z,101366.26
2017-10-25T16:55:13.693Z,101376.65
2017-10-25T16:57:41.183Z,101371.59
2017-10-25T17:00:08.683Z,101365.47
2017-10-25T17:02:36.216Z,101371.24
2017-10-25T17:05:03.696Z,101374.05
2017-10-25T17:07:31.180Z,101379.84
2017-10-25T17:09:58.685Z,101385.13
2017-10-25T17:12:26.179Z,101391.23
2017-10-25T17:14:53.840Z,101387.37
2017-10-25T17:17:21.323Z,101394.29
2017-10-25T17:19:48.858Z,101398.67
2017-10-25T17:22:16.415Z,101403.41
2017-10-25T17:24:43.895Z,101410.97
2017-10-25T17:27:11.376Z,101412.16
2017-10-25T17:29:38.927Z,101419.13
2017-10-25T17:32:06.408Z,101414.48
2017-10-25T17:34:33.932Z,101417.80
2017-10-25T17:37:01.464Z,101414.94
2017-10-25T17:39:29.022Z,101410.09
2017-10-25T17:41:56.536Z,101417.52
2017-10-25T17:44:24.039Z,101423.91
2017-10-25T17:46:51.535Z,101424.87
2017-10-25T17:49:19.076Z,101434.61
2017-10-25T17:51:46.570Z,101439.67
2017-10-25T17:54:14.065Z,101446.27
2017-10-25T17:56:41.621Z,101434.84
2017-10-25T17:59:09.191Z,101445.67
2017-10-25T18:01:36.675Z,101449.64
2017-10-25T18:04:04.405Z,101456.53
2017-10-25T18:06:31.891Z,101460.52
2017-10-25T18:08:59.434Z,101464.75
2017-10-25T18:11:26.936Z,101469.75
2017-10-25T18:13:54.559Z,101469.85
2017-10-25T18:16:22.104Z,101467.37
2017-10-25T18:18:49.586Z,101470.78
2017-10-25T18:21:17.111Z,101473.87
2017-10-25T18:23:44.615Z,101474.85
2017-10-25T18:26:12.100Z,101474.25
2017-10-25T18:28:39.637Z,101473.34
2017-10-25T18:31:07.123Z,101479.25
2017-10-25T18:33:34.621Z,101472.28
2017-10-25T18:36:02.177Z,101479.44
2017-10-25T18:38:29.679Z,101487.27
2017-10-25T18:40:57.393Z,101489.17
2017-10-25T18:43:24.945Z,101486.28
2017-10-25T18:45:52.440Z,101491.80
2017-10-25T18:48:19.989Z,101496.64
2017-10-25T18:50:47.527Z,101489.38
2017-10-25T18:53:15.081Z,101490.63
2017-10-25T18:55:42.747Z,101497.80
2017-10-25T18:58:10.238Z,101496.55
2017-10-25T19:00:37.732Z,101513.80
2017-10-25T19:03:05.273Z,101527.73
2017-10-25T19:05:32.781Z,101520.39
2017-10-25T19:08:00.271Z,101525.34
2017-10-25T19:10:27.791Z,101523.61
2017-10-25T19:12:55.280Z,101519.70
2017-10-25T19:15:22.763Z,101514.44
2017-10-25T19:17:50.300Z,101522.63
2017-10-25T19:20:17.787Z,101522.63
2017-10-25T19:22:45.279Z,101528.12
2017-10-25T19:25:12.796Z,101533.20
2017-10-25T19:27:40.287Z,101531.59
2017-10-25T19:30:07.776Z,101540.99
2017-10-25T19:32:35.301Z,101544.34
2017-10-25T19:35:02.796Z,101541.40
2017-10-25T19:37:30.292Z,101535.53
2017-10-25T19:39:57.829Z,101557.38
2017-10-25T19:42:25.352Z,101561.74
2017-10-25T19:44:52.848Z,101566.81
2017-10-25T19:47:20.416Z,101565.86
2017-10-25T19:49:47.925Z,101565.08
2017-10-25T19:52:15.475Z,101559.50
2017-10-25T19:54:42.967Z,101565.77
2017-10-25T19:57:10.455Z,101569.86
2017-10-25T19:59:38.008Z,101573.06
2017-10-25T20:02:05.520Z,101576.08
2017-10-25T20:04:33.079Z,101584.12
2017-10-25T20:07:00.604Z,101580.30
2017-10-25T20:09:28.096Z,101578.14
2017-10-25T20:11:55.677Z,101584.03
2017-10-25T20:14:23.213Z,101589.99
2017-10-25T20:16:50.714Z,101583.52
2017-10-25T20:19:18.231Z,101582.57
2017-10-25T20:21:45.763Z,101590.59
2017-10-25T20:24:13.264Z,101585.49
2017-10-25T20:26:40.748Z,101591.69
2017-10-25T20:29:08.293Z,101606.80
2017-10-25T20:31:35.818Z,101604.08
2017-10-25T20:34:03.296Z,101606.39
2017-10-25T20:36:30.829Z,101605.50
2017-10-25T20:38:58.329Z,101601.34
2017-10-25T20:41:25.818Z,101606.59
2017-10-25T20:43:53.351Z,101612.00
2017-10-25T20:46:20.888Z,101620.66
2017-10-25T20:48:48.375Z,101617.50
2017-10-25T20:51:15.904Z,101633.80
2017-10-25T20:53:43.450Z,101632.30
2017-10-25T20:56:10.947Z,101629.57
2017-10-25T20:58:38.489Z,101626.84
2017-10-25T21:01:05.972Z,101627.51
2017-10-25T21:03:33.455Z,101632.34
2017-10-25T21:06:00.967Z,101646.11
2017-10-25T21:08:28.490Z,101636.63
2017-10-25T21:10:56.048Z,101636.84
2017-10-25T21:13:23.598Z,101645.26
2017-10-25T21:15:51.119Z,101646.95
2017-10-25T21:18:18.646Z,101639.55
2017-10-25T21:20:46.133Z,101647.37
2017-10-25T21:23:13.642Z,101660.30
2017-10-25T21:25:41.222Z,101665.67
2017-10-25T21:28:08.735Z,101664.31
2017-10-25T21:30:36.211Z,101659.74
2017-10-25T21:33:03.790Z,101660.53
2017-10-25T21:35:31.436Z,101653.41
2017-10-25T21:37:58.937Z,101651.09
2017-10-25T21:40:26.435Z,101667.14
2017-10-25T21:42:54.092Z,101662.14
2017-10-25T21:45:21.588Z,101661.45
2017-10-25T21:47:49.079Z,101662.91
2017-10-25T21:50:16.604Z,101656.14
2017-10-25T21:52:44.112Z,101673.91
2017-10-25T21:55:11.712Z,101676.67
2017-10-25T21:57:39.257Z,101674.08
2017-10-25T22:00:06.749Z,101672.84
2017-10-25T22:02:34.233Z,101679.86
2017-10-25T22:05:01.848Z,101676.52
2017-10-25T22:07:29.355Z,101681.67
2017-10-25T22:09:56.888Z,101677.30
2017-10-25T22:12:24.372Z,101673.52
2017-10-25T22:14:51.872Z,101673.87
2017-10-25T22:17:19.419Z,101683.11
2017-10-25T22:19:46.996Z,101673.47
2017-10-25T22:22:14.492Z,101674.78
2017-10-25T22:24:42.034Z,101668.93
2017-10-25T22:27:09.521Z,101667.61
2017-10-25T22:29:37.008Z,101672.47
2017-10-25T22:32:04.546Z,101680.97
2017-10-25T22:34:32.054Z,101681.59
2017-10-25T22:36:59.545Z,101685.51
2017-10-25T22:39:27.159Z,101687.53
2017-10-25T22:41:54.655Z,101692.31
2017-10-25T22:44:22.196Z,101701.09
2017-10-25T22:46:49.757Z,101702.21
2017-10-25T22:49:17.300Z,101695.73
2017-10-25T22:51:44.858Z,101704.36
2017-10-25T22:54:12.411Z,101698.99
2017-10-25T22:56:39.894Z,101712.27
2017-10-25T22:59:07.436Z,101710.54
2017-10-25T23:01:34.932Z,101708.27
2017-10-25T23:04:02.420Z,101702.30
2017-10-25T23:06:30.112Z,101699.98
2017-10-25T23:08:57.612Z,101707.41
2017-10-25T23:11:25.096Z,101709.17
2017-10-25T23:13:52.693Z,101716.61
2017-10-25T23:16:20.249Z,101719.37
2017-10-25T23:18:47.728Z,101711.94
2017-10-25T23:21:15.355Z,101716.60
2017-10-25T23:23:42.848Z,101719.52
2017-10-25T23:26:10.339Z,101723.02
2017-10-25T23:28:37.940Z,101718.35
2017-10-25T23:31:05.529Z,101716.44
2017-10-25T23:33:33.061Z,101713.95
2017-10-25T23:36:00.565Z,101716.29
2017-10-25T23:38:28.139Z,101722.20
2017-10-25T23:40:55.663Z,101722.52
2017-10-25T23:43:23.153Z,101718.49
2017-10-25T23:45:50.644Z,101719.67
2017-10-25T23:48:18.156Z,101722.09
2017-10-25T23:50:45.650Z,101734.22
2017-10-25T23:53:13.176Z,101731.92
2017-10-25T23:55:40.690Z,101739.04
2017-10-25T23:58:08.175Z,101739.57
